Terminal Aerodrome Forecast
Issued by NWS Louisville, KY

Home | Current Version | Previous Version | Text Only | Print | Product List | Glossary On
Versions: 1 2 3 4 5 6 7 8 9 10 11 12 13 14 15 16 17 18 19 20 21 22 23 24
000
FTUS43 KLMK 021100
TAFSDF
TAF
KSDF 021121Z 0212/0318 32007KT P6SM SCT020 SCT250
     FM021500 03005KT P6SM SCT250
     FM030200 08004KT P6SM BKN150
     FM031100 12004KT P6SM VCSH BKN035=

USA.gov is the U.S. government's official web portal to all federal, state and local government web resources and services.